Terminal Aerodrome Forecast
Issued by NWS Tulsa, OK

Home | Current Version | Previous Version | Text Only | Print | Product List | Glossary On
Versions: 1 2 3 4 5 6 7 8 9 10 11 12 13 14 15 16 17
529
FTUS44 KTSA 271142
TAFTUL
TAF
KTUL 271142Z 2712/2812 33011KT P6SM SCT008 OVC020
     FM271600 34012G18KT P6SM BKN025
     FM272200 01010KT P6SM BKN035
     FM280700 05005KT P6SM SCT025 BKN200=

USA.gov is the U.S. government's official web portal to all federal, state and local government web resources and services.